createdAt,value
2018-01-17T00:01:10.912Z,1.03
2018-01-17T00:03:38.443Z,1.10
2018-01-17T00:06:05.932Z,0.70
2018-01-17T00:08:34.264Z,0.90
2018-01-17T00:11:01.811Z,0.90
2018-01-17T00:13:29.684Z,1.10
2018-01-17T00:15:58.100Z,0.90
2018-01-17T00:18:25.741Z,1.10
2018-01-17T00:20:53.447Z,1.10
2018-01-17T00:23:21.804Z,1.00
2018-01-17T00:25:50.111Z,1.10
2018-01-17T00:28:17.860Z,1.00
2018-01-17T00:30:45.805Z,1.03
2018-01-17T00:33:13.372Z,1.20
2018-01-17T00:35:41.019Z,1.40
2018-01-17T00:38:08.550Z,1.30
2018-01-17T00:40:36.120Z,1.20
2018-01-17T00:43:04.050Z,1.70
2018-01-17T00:45:31.611Z,1.00
2018-01-17T00:47:59.139Z,0.90
2018-01-17T00:50:26.895Z,1.40
2018-01-17T00:52:54.424Z,1.07
2018-01-17T00:55:21.951Z,1.00
2018-01-17T00:57:49.512Z,0.90
2018-01-17T01:00:17.076Z,1.20
2018-01-17T01:02:44.636Z,0.90
2018-01-17T01:05:12.175Z,0.90
2018-01-17T01:07:39.705Z,1.47
2018-01-17T01:10:07.209Z,1.10
2018-01-17T01:12:34.663Z,0.80
2018-01-17T01:15:02.154Z,1.20
2018-01-17T01:17:29.741Z,0.93
2018-01-17T01:19:57.277Z,0.90
2018-01-17T01:22:24.776Z,1.00
2018-01-17T01:24:52.273Z,0.80
2018-01-17T01:27:20.005Z,1.27
2018-01-17T01:29:47.493Z,1.30
2018-01-17T01:32:15.004Z,0.70
2018-01-17T01:34:42.517Z,1.27
2018-01-17T01:37:10.803Z,1.30
2018-01-17T01:39:38.339Z,1.00
2018-01-17T01:42:05.919Z,0.93
2018-01-17T01:44:33.449Z,1.37
2018-01-17T01:47:01.009Z,0.87
2018-01-17T01:49:28.871Z,0.70
2018-01-17T01:51:56.494Z,0.83
2018-01-17T01:54:24.019Z,0.67
2018-01-17T01:56:51.667Z,0.60
2018-01-17T01:59:19.249Z,0.80
2018-01-17T02:01:46.875Z,0.80
2018-01-17T02:04:14.373Z,0.73
2018-01-17T02:06:42.658Z,0.70
2018-01-17T02:09:10.220Z,1.00
2018-01-17T02:11:37.764Z,0.70
2018-01-17T02:14:05.328Z,0.80
2018-01-17T02:16:32.894Z,0.70
2018-01-17T02:19:01.315Z,0.90
2018-01-17T02:21:28.843Z,0.73
2018-01-17T02:23:56.404Z,0.70
2018-01-17T02:26:23.995Z,0.67
2018-01-17T02:28:52.291Z,0.70
2018-01-17T02:31:21.653Z,0.80
2018-01-17T02:33:49.967Z,1.03
2018-01-17T02:36:17.504Z,1.00
2018-01-17T02:38:45.033Z,0.80
2018-01-17T02:41:12.633Z,0.80
2018-01-17T02:43:40.898Z,1.13
2018-01-17T02:46:08.419Z,0.80
2018-01-17T02:48:37.524Z,0.90
2018-01-17T02:51:05.816Z,0.90
2018-01-17T02:53:33.351Z,0.90
2018-01-17T02:56:00.937Z,1.17
2018-01-17T02:58:28.554Z,0.90
2018-01-17T03:00:56.082Z,1.00
2018-01-17T03:03:23.680Z,1.07
2018-01-17T03:05:51.257Z,1.00
2018-01-17T03:08:18.727Z,0.90
2018-01-17T03:10:46.263Z,0.80
2018-01-17T03:13:13.826Z,0.80
2018-01-17T03:15:41.351Z,0.80
2018-01-17T03:18:09.069Z,0.90
2018-01-17T03:20:37.484Z,0.80
2018-01-17T03:23:05.044Z,0.70
2018-01-17T03:25:32.824Z,0.70
2018-01-17T03:28:01.155Z,1.00
2018-01-17T03:30:28.687Z,0.67
2018-01-17T03:32:56.560Z,0.60
2018-01-17T03:35:24.089Z,0.70
2018-01-17T03:37:51.632Z,0.80
2018-01-17T03:40:19.474Z,0.60
2018-01-17T03:42:47.000Z,0.60
2018-01-17T03:45:14.506Z,0.70
2018-01-17T03:47:42.815Z,0.73
2018-01-17T03:50:10.339Z,0.63
2018-01-17T03:52:37.900Z,0.70
2018-01-17T03:55:05.397Z,0.60
2018-01-17T03:57:33.669Z,0.70
2018-01-17T04:00:01.984Z,0.70
2018-01-17T04:02:29.543Z,0.60
2018-01-17T04:04:57.057Z,0.80
2018-01-17T04:07:24.575Z,0.60
2018-01-17T04:09:52.267Z,0.70
2018-01-17T04:12:19.733Z,0.80
2018-01-17T04:14:48.056Z,0.70
2018-01-17T04:17:15.816Z,0.77
2018-01-17T04:19:43.440Z,1.10
2018-01-17T04:22:10.964Z,1.00
2018-01-17T04:24:38.640Z,0.80
2018-01-17T04:27:06.146Z,0.90
2018-01-17T04:29:33.664Z,0.70
2018-01-17T04:32:01.974Z,0.90
2018-01-17T04:34:29.511Z,1.00
2018-01-17T04:36:57.081Z,1.00
2018-01-17T04:39:24.704Z,0.80
2018-01-17T04:41:52.232Z,0.90
2018-01-17T04:44:19.812Z,0.97
2018-01-17T04:46:47.392Z,0.93
2018-01-17T04:49:15.698Z,1.03
2018-01-17T04:51:43.222Z,0.90
2018-01-17T04:54:11.002Z,0.80
2018-01-17T04:56:38.579Z,1.07
2018-01-17T04:59:06.810Z,1.07
2018-01-17T05:01:34.370Z,0.97
2018-01-17T05:04:01.895Z,0.80
2018-01-17T05:06:29.463Z,1.00
2018-01-17T05:08:56.942Z,0.90
2018-01-17T05:11:24.502Z,1.00
2018-01-17T05:13:52.051Z,0.90
2018-01-17T05:16:19.750Z,0.90
2018-01-17T05:18:48.047Z,1.00
2018-01-17T05:21:15.684Z,1.00
2018-01-17T05:23:43.236Z,0.80
2018-01-17T05:26:10.767Z,0.97
2018-01-17T05:28:38.328Z,1.17
2018-01-17T05:31:05.904Z,1.10
2018-01-17T05:33:33.412Z,1.10
2018-01-17T05:36:01.056Z,0.97
2018-01-17T05:38:28.765Z,1.03
2018-01-17T05:40:57.058Z,1.10
2018-01-17T05:43:26.872Z,1.10
2018-01-17T05:45:55.268Z,1.13
2018-01-17T05:48:22.834Z,0.90
2018-01-17T05:50:50.403Z,1.00
2018-01-17T05:53:18.060Z,0.90
2018-01-17T05:55:45.591Z,1.00
2018-01-17T05:58:13.094Z,1.07
2018-01-17T06:00:40.679Z,2.20
2018-01-17T06:03:08.235Z,2.13
2018-01-17T06:05:35.766Z,2.70
2018-01-17T06:08:03.547Z,1.90
2018-01-17T06:10:31.885Z,3.17
2018-01-17T06:12:59.411Z,1.70
2018-01-17T06:15:27.106Z,1.20
2018-01-17T06:17:55.403Z,1.20
2018-01-17T06:20:22.932Z,1.73
2018-01-17T06:22:50.867Z,1.60
2018-01-17T06:25:19.204Z,2.50
2018-01-17T06:27:48.387Z,2.10
2018-01-17T06:30:15.983Z,1.40
2018-01-17T06:32:43.549Z,1.40
2018-01-17T06:35:11.099Z,0.90
2018-01-17T06:37:38.850Z,1.10
2018-01-17T06:40:06.420Z,1.60
2018-01-17T06:42:33.925Z,1.50
2018-01-17T06:45:01.693Z,1.10
2018-01-17T06:47:29.320Z,1.10
2018-01-17T06:49:56.885Z,1.43
2018-01-17T06:52:24.664Z,1.00
2018-01-17T06:54:52.992Z,1.27
2018-01-17T06:57:20.519Z,0.80
2018-01-17T06:59:48.111Z,0.90
2018-01-17T07:02:16.445Z,1.20
2018-01-17T07:04:43.976Z,0.90
2018-01-17T07:07:11.535Z,1.00
2018-01-17T07:09:39.033Z,1.20
2018-01-17T07:12:06.598Z,1.10
2018-01-17T07:14:34.260Z,0.90
2018-01-17T07:17:01.787Z,1.20
2018-01-17T07:19:29.428Z,0.90
2018-01-17T07:21:57.386Z,1.20
2018-01-17T07:24:24.999Z,1.20
2018-01-17T07:26:52.527Z,0.90
2018-01-17T07:29:21.083Z,0.73
2018-01-17T07:31:49.416Z,0.90
2018-01-17T07:34:16.980Z,1.10
2018-01-17T07:36:44.565Z,0.80
2018-01-17T07:39:12.136Z,0.83
2018-01-17T07:41:39.667Z,0.90
2018-01-17T07:44:07.173Z,0.80
2018-01-17T07:46:35.408Z,0.90
2018-01-17T07:49:02.931Z,0.90
2018-01-17T07:51:30.524Z,0.80
2018-01-17T07:53:58.860Z,0.80
2018-01-17T07:56:26.420Z,0.80
2018-01-17T07:58:54.743Z,1.10
2018-01-17T08:01:22.272Z,0.90
2018-01-17T08:03:49.927Z,0.93
2018-01-17T08:06:17.687Z,0.80
2018-01-17T08:08:45.227Z,0.80
2018-01-17T08:11:12.788Z,1.00
2018-01-17T08:13:40.660Z,1.00
2018-01-17T08:16:08.959Z,1.20
2018-01-17T08:18:36.491Z,0.97
2018-01-17T08:21:04.112Z,0.90
2018-01-17T08:23:32.421Z,0.97
2018-01-17T08:26:00.281Z,1.20
2018-01-17T08:28:27.880Z,0.90
2018-01-17T08:30:56.111Z,0.97
2018-01-17T08:33:23.673Z,0.90
2018-01-17T08:35:52.007Z,1.17
2018-01-17T08:38:19.541Z,1.23
2018-01-17T08:40:47.068Z,1.43
2018-01-17T08:43:14.661Z,1.20
2018-01-17T08:45:42.996Z,1.23
2018-01-17T08:48:10.575Z,1.10
2018-01-17T08:50:39.041Z,1.17
2018-01-17T08:53:07.377Z,1.03
2018-01-17T08:55:35.691Z,1.10
2018-01-17T08:58:03.251Z,0.70
2018-01-17T09:00:30.831Z,1.37
2018-01-17T09:02:58.354Z,1.03
2018-01-17T09:05:25.956Z,1.30
2018-01-17T09:07:53.550Z,1.10
2018-01-17T09:10:21.071Z,1.20
2018-01-17T09:12:48.951Z,1.20
2018-01-17T09:15:16.479Z,1.10
2018-01-17T09:17:44.045Z,0.97
2018-01-17T09:20:12.167Z,1.00
2018-01-17T09:22:39.762Z,1.40
2018-01-17T09:25:07.327Z,1.00
2018-01-17T09:27:35.165Z,1.10
2018-01-17T09:30:03.495Z,1.50
2018-01-17T09:32:31.031Z,1.10
2018-01-17T09:34:58.700Z,1.20
2018-01-17T09:37:26.241Z,1.20
2018-01-17T09:39:53.769Z,1.27
2018-01-17T09:42:21.442Z,1.40
2018-01-17T09:44:48.996Z,1.30
2018-01-17T09:47:16.544Z,1.77
2018-01-17T09:49:44.882Z,1.30
2018-01-17T09:52:13.178Z,1.20
2018-01-17T09:54:40.703Z,1.17
2018-01-17T09:57:08.320Z,1.57
2018-01-17T09:59:35.881Z,1.50
2018-01-17T10:02:04.129Z,1.30
2018-01-17T10:04:31.954Z,1.20
2018-01-17T10:06:59.517Z,1.00
2018-01-17T10:09:27.047Z,1.30
2018-01-17T10:11:54.608Z,1.30
2018-01-17T10:14:22.145Z,1.30
2018-01-17T10:16:49.721Z,1.70
2018-01-17T10:19:18.347Z,1.50
2018-01-17T10:21:45.842Z,1.20
2018-01-17T10:24:13.391Z,1.40
2018-01-17T10:26:40.992Z,1.23
2018-01-17T10:29:08.560Z,1.30
2018-01-17T10:31:36.796Z,1.50
2018-01-17T10:34:05.996Z,1.40
2018-01-17T10:36:34.266Z,1.10
2018-01-17T10:39:02.570Z,1.57
2018-01-17T10:41:30.245Z,1.40
2018-01-17T10:43:57.808Z,1.20
2018-01-17T10:46:26.140Z,1.13
2018-01-17T10:48:53.721Z,1.40
2018-01-17T10:51:22.053Z,1.10
2018-01-17T10:53:49.616Z,1.30
2018-01-17T10:56:17.172Z,1.33
2018-01-17T10:58:44.695Z,1.10
2018-01-17T11:01:12.261Z,1.07
2018-01-17T11:03:39.819Z,1.20
2018-01-17T11:06:07.371Z,1.60
2018-01-17T11:08:34.903Z,1.57
2018-01-17T11:11:02.712Z,0.90
2018-01-17T11:13:30.957Z,0.80
2018-01-17T11:15:58.512Z,1.00
2018-01-17T11:18:27.142Z,0.60
2018-01-17T11:20:54.701Z,0.80
2018-01-17T11:23:22.260Z,0.80
2018-01-17T11:25:50.721Z,0.93
2018-01-17T11:28:19.020Z,0.90
2018-01-17T11:30:46.674Z,0.90
2018-01-17T11:33:14.285Z,0.83
2018-01-17T11:35:42.588Z,1.17
2018-01-17T11:38:10.152Z,1.07
2018-01-17T11:40:37.968Z,0.90
2018-01-17T11:43:06.309Z,0.90
2018-01-17T11:45:33.836Z,1.03
2018-01-17T11:48:01.413Z,1.37
2018-01-17T11:50:28.979Z,0.80
2018-01-17T11:52:57.286Z,1.00
2018-01-17T11:55:24.881Z,0.87
2018-01-17T11:57:53.167Z,1.00
2018-01-17T12:00:20.734Z,1.03
2018-01-17T12:02:48.294Z,1.30
2018-01-17T12:05:15.827Z,1.27
2018-01-17T12:07:43.397Z,1.00
2018-01-17T12:10:11.144Z,1.23
2018-01-17T12:12:38.675Z,0.77
2018-01-17T12:15:06.215Z,1.00
2018-01-17T12:17:33.820Z,0.80
2018-01-17T12:20:01.396Z,0.80
2018-01-17T12:22:28.929Z,0.90
2018-01-17T12:24:56.589Z,1.00
2018-01-17T12:27:24.124Z,0.80
2018-01-17T12:29:51.671Z,0.90
2018-01-17T12:32:19.411Z,0.87
2018-01-17T12:34:46.967Z,0.90
2018-01-17T12:37:14.502Z,1.10
2018-01-17T12:39:42.413Z,1.10
2018-01-17T12:42:09.955Z,0.83
2018-01-17T12:44:38.261Z,1.07
2018-01-17T12:47:06.167Z,1.00
2018-01-17T12:49:34.496Z,1.10
2018-01-17T12:52:02.828Z,1.10
2018-01-17T12:54:30.523Z,1.00
2018-01-17T12:56:58.067Z,1.43
2018-01-17T12:59:26.360Z,1.03
2018-01-17T13:01:54.152Z,1.30
2018-01-17T13:04:21.688Z,1.00
2018-01-17T13:06:49.223Z,1.13
2018-01-17T13:09:16.791Z,1.00
2018-01-17T13:11:44.323Z,1.03
2018-01-17T13:14:11.789Z,1.53
2018-01-17T13:16:39.490Z,1.37
2018-01-17T13:19:07.047Z,1.20
2018-01-17T13:21:34.819Z,1.63
2018-01-17T13:24:02.550Z,1.30
2018-01-17T13:26:30.116Z,1.20
2018-01-17T13:28:57.685Z,1.40
2018-01-17T13:31:26.224Z,1.30
2018-01-17T13:33:53.788Z,1.80
2018-01-17T13:36:21.340Z,1.20
2018-01-17T13:38:48.954Z,1.40
2018-01-17T13:41:17.251Z,1.30
2018-01-17T13:43:45.559Z,1.30
2018-01-17T13:46:13.163Z,1.27
2018-01-17T13:48:40.696Z,2.07
2018-01-17T13:51:09.051Z,1.40
2018-01-17T13:53:37.688Z,2.23
2018-01-17T13:56:05.231Z,1.27
2018-01-17T13:58:32.758Z,1.37
2018-01-17T14:01:00.523Z,1.50
2018-01-17T14:03:28.047Z,1.60
2018-01-17T14:05:56.384Z,1.47
2018-01-17T14:08:23.936Z,1.40
2018-01-17T14:10:51.544Z,1.60
2018-01-17T14:13:19.876Z,1.80
2018-01-17T14:15:47.705Z,1.40
2018-01-17T14:18:15.262Z,1.53
2018-01-17T14:20:42.827Z,1.43
2018-01-17T14:23:10.416Z,1.40
2018-01-17T14:25:37.957Z,1.40
2018-01-17T14:28:05.474Z,1.43
2018-01-17T14:30:33.229Z,1.40
2018-01-17T14:33:01.607Z,1.47
2018-01-17T14:35:29.184Z,1.70
2018-01-17T14:37:56.770Z,1.40
2018-01-17T14:40:24.338Z,1.63
2018-01-17T14:42:57.809Z,1.40
2018-01-17T14:45:26.162Z,1.37
2018-01-17T14:47:54.498Z,1.60
2018-01-17T14:50:22.452Z,1.60
2018-01-17T14:52:50.027Z,1.50
2018-01-17T14:55:17.563Z,1.87
2018-01-17T14:57:45.107Z,1.60
2018-01-17T15:00:15.308Z,1.53
2018-01-17T15:02:42.839Z,1.33
2018-01-17T15:05:10.605Z,1.60
2018-01-17T15:07:38.173Z,1.50
2018-01-17T15:10:06.527Z,1.90
2018-01-17T15:12:34.088Z,1.40
2018-01-17T15:15:01.668Z,2.00
2018-01-17T15:17:29.236Z,1.50
2018-01-17T15:19:56.831Z,1.50
2018-01-17T15:22:24.363Z,1.67
2018-01-17T15:24:52.759Z,1.20
2018-01-17T15:27:20.573Z,2.00
2018-01-17T15:29:48.905Z,1.70
2018-01-17T15:32:16.488Z,1.60
2018-01-17T15:34:44.290Z,1.47
2018-01-17T15:37:11.895Z,1.83
2018-01-17T15:39:39.460Z,1.67
2018-01-17T15:42:07.041Z,2.30
2018-01-17T15:44:34.641Z,1.73
2018-01-17T15:47:02.205Z,1.70
2018-01-17T15:49:29.900Z,1.50
2018-01-17T15:51:58.228Z,1.90
2018-01-17T15:54:26.579Z,1.70
2018-01-17T15:56:54.288Z,1.90
2018-01-17T15:59:21.829Z,1.70
2018-01-17T16:01:49.368Z,1.60
2018-01-17T16:04:17.075Z,1.83
2018-01-17T16:06:44.611Z,1.60
2018-01-17T16:09:12.175Z,2.17
2018-01-17T16:11:41.247Z,1.80
2018-01-17T16:14:08.820Z,1.80
2018-01-17T16:16:36.359Z,1.77
2018-01-17T16:19:04.823Z,1.73
2018-01-17T16:21:33.119Z,1.73
2018-01-17T16:24:00.655Z,2.53
2018-01-17T16:26:28.204Z,1.90
2018-01-17T16:28:55.710Z,1.60
2018-01-17T16:31:23.275Z,1.80
2018-01-17T16:33:50.823Z,1.80
2018-01-17T16:36:18.868Z,2.17
2018-01-17T16:38:46.403Z,1.90
2018-01-17T16:41:14.932Z,2.03
2018-01-17T16:43:42.457Z,2.10
2018-01-17T16:46:09.978Z,2.30
2018-01-17T16:48:37.568Z,1.80
2018-01-17T16:51:05.103Z,1.93
2018-01-17T16:53:32.668Z,2.33
2018-01-17T16:56:00.227Z,1.70
2018-01-17T16:58:28.525Z,2.10
2018-01-17T17:00:56.104Z,2.40
2018-01-17T17:03:23.754Z,2.47
2018-01-17T17:05:52.154Z,2.20
2018-01-17T17:08:19.688Z,2.00
2018-01-17T17:10:47.536Z,1.80
2018-01-17T17:13:15.116Z,1.90
2018-01-17T17:15:42.655Z,2.27
2018-01-17T17:18:10.337Z,1.83
2018-01-17T17:20:38.705Z,1.97
2018-01-17T17:23:06.242Z,2.10
2018-01-17T17:25:33.920Z,1.90
2018-01-17T17:28:02.248Z,2.47
2018-01-17T17:30:29.788Z,1.73
2018-01-17T17:32:57.421Z,2.00
2018-01-17T17:35:25.760Z,1.80
2018-01-17T17:37:53.333Z,2.00
2018-01-17T17:40:21.022Z,2.17
2018-01-17T17:42:49.358Z,1.50
2018-01-17T17:45:16.895Z,1.73
2018-01-17T17:47:44.587Z,2.53
2018-01-17T17:50:12.893Z,1.70
2018-01-17T17:52:40.459Z,2.07
2018-01-17T17:55:08.175Z,1.60
2018-01-17T17:57:35.700Z,1.50
2018-01-17T18:00:03.297Z,1.70
2018-01-17T18:02:31.259Z,1.80
2018-01-17T18:04:58.791Z,1.97
2018-01-17T18:07:26.263Z,1.70
2018-01-17T18:09:54.583Z,1.90
2018-01-17T18:12:22.111Z,2.03
2018-01-17T18:14:49.657Z,2.67
2018-01-17T18:17:17.401Z,1.90
2018-01-17T18:19:45.829Z,1.93
2018-01-17T18:22:14.131Z,2.60
2018-01-17T18:24:41.715Z,1.93
2018-01-17T18:27:09.957Z,2.17
2018-01-17T18:29:37.493Z,1.87
2018-01-17T18:32:05.034Z,2.77
2018-01-17T18:34:32.588Z,2.20
2018-01-17T18:37:00.165Z,2.70
2018-01-17T18:39:27.746Z,3.00
2018-01-17T18:41:55.320Z,2.87
2018-01-17T18:44:22.868Z,3.10
2018-01-17T18:46:50.756Z,2.47
2018-01-17T18:49:18.289Z,2.20
2018-01-17T18:51:46.642Z,2.37
2018-01-17T18:54:15.194Z,2.17
2018-01-17T18:56:42.918Z,1.97
2018-01-17T18:59:10.505Z,2.50
2018-01-17T19:01:39.112Z,2.37
2018-01-17T19:04:06.652Z,2.60
2018-01-17T19:06:34.253Z,2.10
2018-01-17T19:09:03.192Z,2.10
2018-01-17T19:11:31.449Z,2.40
2018-01-17T19:14:00.404Z,2.70
2018-01-17T19:16:28.793Z,2.80
2018-01-17T19:18:57.355Z,2.40
2018-01-17T19:21:25.820Z,1.97
2018-01-17T19:23:54.053Z,2.53
2018-01-17T19:26:21.695Z,2.00
2018-01-17T19:28:49.290Z,2.20
2018-01-17T19:31:17.124Z,1.93
2018-01-17T19:33:44.671Z,2.60
2018-01-17T19:36:12.226Z,1.80
2018-01-17T19:38:40.074Z,2.00
2018-01-17T19:41:07.911Z,2.40
2018-01-17T19:43:35.550Z,1.90
2018-01-17T19:46:03.420Z,1.80
2018-01-17T19:48:31.053Z,1.90
2018-01-17T19:50:58.787Z,2.00
2018-01-17T19:53:26.349Z,2.03
2018-01-17T19:55:53.895Z,1.90
2018-01-17T19:58:21.364Z,1.83
2018-01-17T20:00:49.085Z,2.10
2018-01-17T20:03:16.665Z,1.80
2018-01-17T20:05:44.979Z,2.57
2018-01-17T20:08:12.610Z,1.90
2018-01-17T20:10:40.325Z,2.20
2018-01-17T20:13:08.681Z,2.07
2018-01-17T20:15:37.287Z,1.97
2018-01-17T20:18:04.959Z,2.50
2018-01-17T20:20:32.547Z,2.10
2018-01-17T20:23:06.752Z,2.50
2018-01-17T20:25:35.116Z,2.20
2018-01-17T20:28:03.451Z,1.90
2018-01-17T20:30:31.202Z,2.10
2018-01-17T20:32:58.771Z,2.30
2018-01-17T20:35:26.466Z,1.83
2018-01-17T20:37:54.060Z,1.90
2018-01-17T20:40:22.509Z,2.40
2018-01-17T20:42:50.074Z,2.07
2018-01-17T20:45:18.067Z,2.10
2018-01-17T20:47:45.637Z,2.07
2018-01-17T20:50:13.269Z,2.10
2018-01-17T20:52:40.893Z,1.73
2018-01-17T20:55:08.427Z,1.83
2018-01-17T20:57:35.985Z,2.00
2018-01-17T21:00:03.759Z,2.00
2018-01-17T21:02:31.351Z,1.90
2018-01-17T21:04:58.934Z,1.90
2018-01-17T21:07:26.833Z,1.80
2018-01-17T21:09:55.352Z,1.73
2018-01-17T21:12:22.884Z,1.80
2018-01-17T21:14:50.496Z,1.80
2018-01-17T21:17:18.036Z,1.53
2018-01-17T21:19:46.372Z,2.07
2018-01-17T21:22:13.963Z,1.50
2018-01-17T21:24:41.503Z,1.90
2018-01-17T21:27:09.051Z,1.70
2018-01-17T21:29:37.643Z,2.00
2018-01-17T21:32:05.224Z,1.90
2018-01-17T21:34:32.860Z,1.60
2018-01-17T21:37:01.633Z,1.80
2018-01-17T21:39:30.658Z,1.67
2018-01-17T21:41:58.453Z,1.87
2018-01-17T21:44:31.705Z,1.90
2018-01-17T21:46:59.265Z,2.00
2018-01-17T21:49:26.823Z,1.57
2018-01-17T21:51:54.800Z,2.07
2018-01-17T21:54:23.200Z,2.03
2018-01-17T21:56:51.061Z,2.20
2018-01-17T21:59:18.660Z,2.17
2018-01-17T22:01:47.001Z,2.07
2018-01-17T22:04:14.596Z,1.87
2018-01-17T22:06:42.391Z,1.80
2018-01-17T22:09:10.080Z,1.83
2018-01-17T22:11:37.558Z,2.00
2018-01-17T22:14:05.160Z,2.93
2018-01-17T22:16:32.723Z,1.53
2018-01-17T22:19:00.321Z,1.90
2018-01-17T22:21:27.908Z,2.10
2018-01-17T22:23:55.501Z,1.77
2018-01-17T22:26:23.095Z,1.60
2018-01-17T22:28:51.013Z,1.90
2018-01-17T22:31:18.548Z,2.20
2018-01-17T22:33:46.159Z,1.40
2018-01-17T22:36:13.740Z,1.90
2018-01-17T22:38:41.342Z,1.80
2018-01-17T22:41:08.887Z,2.20
2018-01-17T22:43:36.800Z,1.80
2018-01-17T22:46:04.373Z,2.13
2018-01-17T22:48:31.934Z,2.57
2018-01-17T22:50:59.492Z,2.20
2018-01-17T22:53:27.064Z,2.83
2018-01-17T22:55:55.359Z,2.50
2018-01-17T22:58:22.902Z,2.10
2018-01-17T23:00:50.435Z,2.20
2018-01-17T23:03:17.998Z,2.33
2018-01-17T23:05:45.588Z,2.50
2018-01-17T23:08:13.126Z,2.50
2018-01-17T23:10:40.729Z,2.97
2018-01-17T23:13:08.287Z,2.07
2018-01-17T23:15:35.819Z,2.07
2018-01-17T23:18:03.384Z,2.17
2018-01-17T23:20:31.180Z,2.23
2018-01-17T23:22:59.517Z,2.27
2018-01-17T23:25:27.084Z,2.20
2018-01-17T23:27:55.444Z,2.00
2018-01-17T23:30:22.988Z,2.10
2018-01-17T23:32:50.522Z,2.77
2018-01-17T23:35:18.125Z,2.20
2018-01-17T23:37:45.598Z,2.57
2018-01-17T23:40:13.121Z,2.40
2018-01-17T23:42:40.774Z,2.40
2018-01-17T23:45:08.285Z,2.40
2018-01-17T23:47:35.815Z,2.00
2018-01-17T23:50:04.280Z,1.90
2018-01-17T23:52:32.616Z,1.53
2018-01-17T23:55:00.147Z,2.17
2018-01-17T23:57:27.890Z,1.97
2018-01-17T23:59:55.456Z,2.00
